createdAt,value
2023-03-06T00:01:49.286Z,60.46
2023-03-06T00:04:53.509Z,61.38
2023-03-06T00:07:56.334Z,61.65
2023-03-06T00:10:59.652Z,62.68
2023-03-06T00:14:03.059Z,61.68
2023-03-06T00:17:05.973Z,62.54
2023-03-06T00:20:11.121Z,62.12
2023-03-06T00:23:14.307Z,61.36
2023-03-06T00:26:17.586Z,62.13
2023-03-06T00:29:21.247Z,61.70
2023-03-06T00:32:25.149Z,64.24
2023-03-06T00:35:28.344Z,63.73
2023-03-06T00:38:33.541Z,63.65
2023-03-06T00:41:36.541Z,66.40
2023-03-06T00:44:39.646Z,64.24
2023-03-06T00:47:42.651Z,63.87
2023-03-06T00:50:45.541Z,63.10
2023-03-06T00:53:48.705Z,63.66
2023-03-06T00:56:52.226Z,64.80
2023-03-06T00:59:55.950Z,64.94
2023-03-06T01:02:58.985Z,64.48
2023-03-06T01:06:01.779Z,64.61
2023-03-06T01:09:06.914Z,64.18
2023-03-06T01:12:09.985Z,63.90
2023-03-06T01:15:13.767Z,63.72
2023-03-06T01:18:16.838Z,65.75
2023-03-06T01:21:19.770Z,64.93
2023-03-06T01:24:24.578Z,67.43
2023-03-06T01:27:28.062Z,69.13
2023-03-06T01:30:31.240Z,69.13
2023-03-06T01:33:34.421Z,69.99
2023-03-06T01:36:37.694Z,70.07
2023-03-06T01:39:41.328Z,70.13
2023-03-06T01:42:45.838Z,70.43
2023-03-06T01:45:53.174Z,70.19
2023-03-06T01:49:13.915Z,69.09
2023-03-06T01:52:21.932Z,69.54
2023-03-06T01:55:31.505Z,68.93
2023-03-06T01:58:34.945Z,68.64
2023-03-06T02:01:40.360Z,68.09
2023-03-06T02:04:44.204Z,69.00
2023-03-06T02:07:48.302Z,68.34
2023-03-06T02:11:09.285Z,68.39
2023-03-06T02:14:15.498Z,68.46
2023-03-06T02:17:21.697Z,68.60
2023-03-06T02:20:33.523Z,68.99
2023-03-06T02:23:58.646Z,68.63
2023-03-06T02:27:03.423Z,68.81
2023-03-06T02:30:08.751Z,70.52
2023-03-06T02:33:17.446Z,68.42
2023-03-06T02:36:20.277Z,69.41
2023-03-06T02:39:28.482Z,70.01
2023-03-06T02:42:31.297Z,69.36
2023-03-06T02:45:45.439Z,69.77
2023-03-06T02:48:49.267Z,70.39
2023-03-06T02:51:52.138Z,71.35
2023-03-06T02:54:55.138Z,71.20
2023-03-06T02:57:58.159Z,71.10
2023-03-06T03:01:01.703Z,70.54
2023-03-06T03:04:06.345Z,70.82
2023-03-06T03:07:09.187Z,70.83
2023-03-06T03:10:12.857Z,70.70
2023-03-06T03:13:15.637Z,70.94
2023-03-06T03:16:18.913Z,70.31
2023-03-06T03:19:22.113Z,70.34
2023-03-06T03:22:25.222Z,70.16
2023-03-06T03:25:28.376Z,69.94
2023-03-06T03:28:33.649Z,69.86
2023-03-06T03:31:36.754Z,70.35
2023-03-06T03:34:40.358Z,71.00
2023-03-06T03:37:42.959Z,70.90
2023-03-06T03:40:46.117Z,69.95
2023-03-06T03:43:49.021Z,70.25
2023-03-06T03:46:52.340Z,70.56
2023-03-06T03:49:58.621Z,70.54
2023-03-06T03:53:01.401Z,70.90
2023-03-06T03:56:05.355Z,71.20
2023-03-06T03:59:11.934Z,70.57
2023-03-06T04:02:23.927Z,70.92
2023-03-06T04:05:44.383Z,71.15
2023-03-06T04:08:49.773Z,71.76
2023-03-06T04:11:53.136Z,71.54
2023-03-06T04:14:56.310Z,70.69
2023-03-06T04:17:59.507Z,70.34
2023-03-06T04:21:04.596Z,71.43
2023-03-06T04:24:08.148Z,73.13
2023-03-06T04:27:11.612Z,75.65
2023-03-06T04:30:15.525Z,75.51
2023-03-06T04:33:18.863Z,74.89
2023-03-06T04:36:45.474Z,74.80
2023-03-06T04:39:51.338Z,72.46
2023-03-06T04:42:55.434Z,72.12
2023-03-06T04:45:58.323Z,70.18
2023-03-06T04:49:01.397Z,69.08
2023-03-06T04:52:04.729Z,68.98
2023-03-06T04:55:09.263Z,68.34
2023-03-06T04:58:14.031Z,67.22
2023-03-06T05:01:17.135Z,67.46
2023-03-06T05:04:20.473Z,67.04
2023-03-06T05:07:23.698Z,66.74
2023-03-06T05:10:26.612Z,67.02
2023-03-06T05:13:29.574Z,66.12
2023-03-06T05:16:32.094Z,65.17
2023-03-06T05:19:35.073Z,65.15
2023-03-06T05:22:38.344Z,64.69
2023-03-06T05:25:41.958Z,63.92
2023-03-06T05:28:44.826Z,63.74
2023-03-06T05:31:47.876Z,63.55
2023-03-06T05:34:51.367Z,63.49
2023-03-06T05:37:54.249Z,63.08
2023-03-06T05:40:57.149Z,63.08
2023-03-06T05:43:59.978Z,62.86
2023-03-06T05:47:02.804Z,62.64
2023-03-06T05:50:08.246Z,62.45
2023-03-06T05:53:11.155Z,61.72
2023-03-06T05:56:14.481Z,62.16
2023-03-06T05:59:17.513Z,61.67
2023-03-06T06:02:41.104Z,61.90
2023-03-06T06:05:43.814Z,61.72
2023-03-06T06:08:52.451Z,61.25
2023-03-06T06:11:59.914Z,61.02
2023-03-06T06:15:02.997Z,60.84
2023-03-06T06:18:05.981Z,60.41
2023-03-06T06:21:11.040Z,60.43
2023-03-06T06:24:15.882Z,60.22
2023-03-06T06:27:18.580Z,60.18
2023-03-06T06:30:21.453Z,60.11
2023-03-06T06:33:24.710Z,59.97
2023-03-06T06:36:27.279Z,59.55
2023-03-06T06:39:30.577Z,59.19
2023-03-06T06:42:39.466Z,58.45
2023-03-06T06:45:44.360Z,58.30
2023-03-06T06:48:56.459Z,58.34
2023-03-06T06:51:59.753Z,58.34
2023-03-06T06:55:02.442Z,57.51
2023-03-06T06:58:05.125Z,56.87
2023-03-06T07:01:10.280Z,56.96
2023-03-06T07:04:14.110Z,57.32
2023-03-06T07:07:17.354Z,56.57
2023-03-06T07:10:21.197Z,56.75
2023-03-06T07:13:24.444Z,56.42
2023-03-06T07:16:27.692Z,55.83
2023-03-06T07:19:30.672Z,55.63
2023-03-06T07:22:41.538Z,55.37
2023-03-06T07:25:51.747Z,54.84
2023-03-06T07:28:55.303Z,54.46
2023-03-06T07:31:57.931Z,54.70
2023-03-06T07:35:19.016Z,54.34
2023-03-06T07:38:22.292Z,53.56
2023-03-06T07:41:25.173Z,53.47
2023-03-06T07:44:30.198Z,53.35
2023-03-06T07:47:33.177Z,54.50
2023-03-06T07:50:35.969Z,53.58
2023-03-06T07:53:39.776Z,53.13
2023-03-06T07:56:42.825Z,53.79
2023-03-06T07:59:45.567Z,53.34
2023-03-06T08:02:50.081Z,53.16
2023-03-06T08:05:52.741Z,52.88
2023-03-06T08:08:57.100Z,53.33
2023-03-06T08:11:59.774Z,53.36
2023-03-06T08:15:02.854Z,53.25
2023-03-06T08:18:06.241Z,52.60
2023-03-06T08:21:11.683Z,53.51
2023-03-06T08:24:16.704Z,53.33
2023-03-06T08:27:19.548Z,53.28
2023-03-06T08:30:22.224Z,53.13
2023-03-06T08:33:25.341Z,52.83
2023-03-06T08:36:28.180Z,53.51
2023-03-06T08:39:31.313Z,53.62
2023-03-06T08:42:33.866Z,54.11
2023-03-06T08:45:36.813Z,53.89
2023-03-06T08:48:39.813Z,53.89
2023-03-06T08:51:43.216Z,53.79
2023-03-06T08:54:46.784Z,53.62
2023-03-06T08:57:49.686Z,53.82
2023-03-06T09:00:52.378Z,53.67
2023-03-06T09:03:59.696Z,53.57
2023-03-06T09:07:03.678Z,53.67
2023-03-06T09:10:09.498Z,53.16
2023-03-06T09:13:13.078Z,53.42
2023-03-06T09:16:16.660Z,53.94
2023-03-06T09:19:19.576Z,53.71
2023-03-06T09:22:22.497Z,54.34
2023-03-06T09:25:25.461Z,54.04
2023-03-06T09:28:28.371Z,53.62
2023-03-06T09:31:32.210Z,53.86
2023-03-06T09:34:35.666Z,54.96
2023-03-06T09:37:38.291Z,55.16
2023-03-06T09:40:59.218Z,54.84
2023-03-06T09:44:11.981Z,56.09
2023-03-06T09:47:20.438Z,54.93
2023-03-06T09:50:32.446Z,55.34
2023-03-06T09:54:05.308Z,56.50
2023-03-06T09:57:20.056Z,58.01
2023-03-06T10:00:31.133Z,57.29
2023-03-06T10:04:05.935Z,58.81
2023-03-06T10:07:25.306Z,59.47
2023-03-06T10:10:44.877Z,59.99
2023-03-06T10:13:55.017Z,58.81
2023-03-06T10:16:58.718Z,60.14
2023-03-06T10:20:02.668Z,60.14
2023-03-06T10:23:38.931Z,61.98
2023-03-06T10:26:50.280Z,63.23
2023-03-06T10:30:03.544Z,63.73
